Flight Track Log - Related Links

Times and Time Zones

All times are in EDT time to prevent confusion due to time zone crossing. See the UAL822 flight status page for this flight to view local times or setup timezone preferences in your user account.

Time Position Orientation Groundspeed Altitude Reporting Facility
EDT Latitude Longitude Course Direction KTS MPH feet Rate Location/Type
Sun 08:01:54 PM 39.9167 -104.6833 33° Northeast 180 207 6,700  Level Denver TRACON
Sun 08:02:54 PM 39.9667 -104.6500 27° Northeast 233 268 7,900 1,632 Climbing Denver TRACON
Sun 08:03:48 PM 40.0333 -104.6000 30° Northeast 263 303 9,800 2,056 Climbing Denver TRACON
Sun 08:04:00 PM 40.2679 -104.5000 North  Level FlightAware Approximate
Sun 08:04:42 PM 40.1000 -104.5500 30° Northeast 296 341 11,600  Level Denver TRACON
Sun 08:05:00 PM 40.3718 -104.4283 37° Northeast  Level FlightAware Approximate
Sun 08:05:15 PM 40.1336 -104.5306 24° Northeast 317 365 12,400  Level Denver Center
Sun 08:06:00 PM 40.4628 -104.3224 33° Northeast  Level FlightAware Approximate
Sun 08:06:17 PM 40.2281 -104.4678 27° Northeast 354 407 15,200  Level Denver Center
Sun 08:07:00 PM 40.5653 -104.2345 33° Northeast  Level FlightAware Approximate
Sun 08:07:19 PM 40.3133 -104.4092 28° Northeast 348 400 19,100  Level Denver Center
Sun 08:08:21 PM 40.4142 -104.3447 26° Northeast 375 432 22,600 2,758 Climbing Denver Center
Sun 08:09:23 PM 40.4939 -104.2892 28° Northeast 362 417 24,800 1,597 Climbing Denver Center
Sun 08:10:25 PM 40.6067 -104.2019 30° Northeast 403 464 25,900 1,122 Climbing Denver Center
Sun 08:11:26 PM 40.6947 -104.0836 46° Northeast 442 509 27,100 1,366 Climbing Denver Center
Sun 08:12:28 PM 40.7831 -103.9733 43° Northeast 432 497 28,700 1,306 Climbing Denver Center
Sun 08:13:30 PM 40.8731 -103.8567 44° Northeast 446 513 29,800 1,161 Climbing Denver Center
Sun 08:14:32 PM 40.9642 -103.7394 44° Northeast 453 521 31,100 1,220 Climbing Denver Center
Sun 08:15:33 PM 41.0467 -103.6319 44° Northeast 457 526 32,300 1,200 Climbing Denver Center
Sun 08:16:47 PM 41.1467 -103.5025 44° Northeast 451 519 33,800 1,095 Climbing Denver Center
Sun 08:17:50 PM 41.2592 -103.3556 44° Northeast 446 513 34,800 576 Climbing Denver Center
Sun 08:18:52 PM 41.3433 -103.2383 46° Northeast 456 525 35,000 97 Climbing Denver Center
Sun 08:19:54 PM 41.4031 -103.0606 66° East 479 551 35,000  Level Denver Center
Sun 08:20:55 PM 41.4325 -102.8964 76° East 480 552 35,000  Level Denver Center
Sun 08:21:57 PM 41.4661 -102.7028 77° East 481 554 35,000  Level Denver Center
Sun 08:22:59 PM 41.4978 -102.5222 77° East 484 557 35,000  Level Denver Center
Sun 08:24:01 PM 41.5281 -102.3550 76° East 484 557 35,000  Level Denver Center
Sun 08:25:03 PM 41.5608 -102.1592 77° East 484 557 35,000  Level Denver Center
Sun 08:26:05 PM 41.5894 -101.9917 77° East 483 556 35,000  Level Denver Center
Sun 08:27:06 PM 41.6231 -101.7961 77° East 483 556 35,000  Level Denver Center
Sun 08:28:08 PM 41.6503 -101.6297 78° East 479 551 35,000  Level Denver Center
Sun 08:29:10 PM 41.6781 -101.4617 77° East 481 554 35,000  Level Denver Center
Sun 08:30:12 PM 41.7097 -101.2661 78° East 481 554 35,000  Level Denver Center
Sun 08:31:25 PM 41.7361 -101.0983 78° East 480 552 35,000  Level Denver Center
Sun 08:32:28 PM 41.7714 -100.8742 78° East 481 554 35,000  Level Denver Center
Sun 08:33:29 PM 41.7986 -100.7056 78° East 481 554 35,000  Level Denver Center
Sun 08:34:31 PM 41.8283 -100.5086 78° East 483 556 35,000  Level Denver Center
Sun 08:35:33 PM 41.8556 -100.3389 78° East 484 557 35,000  Level Denver Center
Sun 08:36:35 PM 41.8856 -100.1411 78° East 484 557 35,000  Level Denver Center
Sun 08:37:27 PM 41.9067 -100.0097 78° East 488 562 35,000  Level Minneapolis Center
Sun 08:38:29 PM 41.9322 -99.8322 79° East 487 560 35,000  Level Minneapolis Center
Sun 08:38:50 PM 41.9358 -99.8000 81° East 486 559 35,000  Level Denver Center
Sun 08:40:04 PM 41.9686 -99.5847 78° East 482 555 35,000  Level Denver Center
Sun 08:41:06 PM 41.9933 -99.4078 79° East 480 552 35,000  Level Denver Center
Sun 08:42:08 PM 42.0297 -99.1564 79° East 486 559 35,000  Level Denver Center
Sun 08:42:35 PM 42.0392 -99.0867 80° East 482 555 35,000  Level Minneapolis Center
Sun 08:43:37 PM 42.0647 -98.9089 79° East 482 555 35,000  Level Minneapolis Center
Sun 08:44:38 PM 42.0894 -98.7300 79° East 484 557 35,000  Level Minneapolis Center
Sun 08:45:40 PM 42.1139 -98.5517 79° East 483 556 35,000  Level Minneapolis Center
Sun 08:46:41 PM 42.1383 -98.3739 79° East 482 555 35,000  Level Minneapolis Center
Sun 08:47:43 PM 42.1625 -98.1953 80° East 482 555 35,000  Level Minneapolis Center
Sun 08:48:45 PM 42.1864 -98.0169 80° East 483 556 35,000  Level Minneapolis Center
Sun 08:49:46 PM 42.2139 -97.8086 80° East 486 559 35,000  Level Minneapolis Center
Sun 08:50:48 PM 42.2364 -97.6292 80° East 487 560 35,000  Level Minneapolis Center
Sun 08:51:50 PM 42.2594 -97.4486 80° East 487 560 35,000  Level Minneapolis Center
Sun 08:52:51 PM 42.2817 -97.2694 80° East 485 558 35,000  Level Minneapolis Center
Sun 08:53:53 PM 42.3033 -97.0886 81° East 486 559 35,000  Level Minneapolis Center
Sun 08:54:55 PM 42.3261 -96.9081 80° East 487 560 35,000  Level Minneapolis Center
Sun 08:55:56 PM 42.3481 -96.7264 81° East 488 562 35,000  Level Minneapolis Center
Sun 08:56:58 PM 42.3689 -96.5461 81° East 486 559 35,000  Level Minneapolis Center
Sun 08:58:00 PM 42.3947 -96.3297 81° East 484 557 35,000  Level Minneapolis Center
Sun 08:59:02 PM 42.4150 -96.1492 81° East 484 557 35,000  Level Minneapolis Center
Sun 09:00:03 PM 42.4358 -95.9664 81° East 487 560 35,000  Level Minneapolis Center
Sun 09:01:05 PM 42.4558 -95.7864 81° East 484 557 35,000  Level Minneapolis Center
Sun 09:02:07 PM 42.4758 -95.6017 82° East 491 565 35,000  Level Minneapolis Center
Sun 09:03:09 PM 42.4950 -95.4214 82° East 485 558 35,000  Level Minneapolis Center
Sun 09:04:10 PM 42.4975 -95.2397 89° East 482 555 35,000  Level Minneapolis Center
Sun 09:05:12 PM 42.4972 -95.0556 90° East 484 557 35,000  Level Minneapolis Center
Sun 09:06:14 PM 42.4953 -94.8331 91° East 491 565 35,000  Level Minneapolis Center
Sun 09:07:16 PM 42.4942 -94.6503 90° East 487 560 35,000  Level Minneapolis Center
Sun 09:08:17 PM 42.4925 -94.4753 91° East 486 559 35,000  Level Minneapolis Center
Sun 09:09:19 PM 42.4911 -94.2956 91° East 485 558 35,000  Level Minneapolis Center
Sun 09:10:21 PM 42.4894 -94.1150 91° East 485 558 35,000  Level Minneapolis Center
Sun 09:11:23 PM 42.4861 -93.8978 91° East 485 558 35,000  Level Minneapolis Center
Sun 09:12:24 PM 42.4839 -93.7181 91° East 485 558 35,000  Level Minneapolis Center
Sun 09:13:26 PM 42.4808 -93.5381 91° East 483 556 35,000  Level Minneapolis Center
Sun 09:14:28 PM 42.4786 -93.3572 91° East 486 559 35,000  Level Minneapolis Center
Sun 09:15:30 PM 42.4747 -93.1783 92° East 481 554 35,000  Level Minneapolis Center
Sun 09:16:31 PM 42.4722 -93.0011 91° East 478 550 35,000  Level Minneapolis Center
Sun 09:17:33 PM 42.4672 -92.7864 92° East 480 552 35,000  Level Minneapolis Center
Sun 09:18:35 PM 42.4633 -92.6094 92° East 478 550 35,000  Level Minneapolis Center
Sun 09:19:36 PM 42.4583 -92.4319 92° East 478 550 35,000  Level Minneapolis Center
Sun 09:20:38 PM 42.4539 -92.2561 92° East 475 547 35,000  Level Minneapolis Center
Sun 09:21:40 PM 42.4489 -92.0797 92° East 475 547 35,000  Level Minneapolis Center
Sun 09:22:46 PM 42.4422 -91.8692 92° East 471 542 35,000 -328 Level Chicago Center
Sun 09:23:48 PM 42.4381 -91.6967 92° East 469 540 34,300 -919 Descending Chicago Center
Sun 09:24:50 PM 42.4308 -91.4883 93° East 472 543 33,100 -629 Descending Chicago Center
Sun 09:25:52 PM 42.4236 -91.3111 93° East 479 551 33,000 -290 Descending Chicago Center
Sun 09:26:54 PM 42.4169 -91.1361 93° East 474 545 32,500 -742 Descending Chicago Center
Sun 09:28:58 PM 42.4039 -90.7858 93° East 472 543 30,700 -968 Descending Chicago Center
Sun 09:30:00 PM 42.4136 -90.5786 86° East 466 536 29,500 -1,024 Descending Chicago Center
Sun 09:31:01 PM 42.4308 -90.4100 82° East 460 529 28,600 -927 Descending Chicago Center
Sun 09:32:03 PM 42.4478 -90.2425 82° East 455 524 27,600 -968 Descending Chicago Center
Sun 09:33:05 PM 42.4656 -90.0761 82° East 453 521 26,600 -1,065 Descending Chicago Center
Sun 09:34:07 PM 42.4842 -89.8850 82° East 456 525 25,400 -1,597 Descending Chicago Center
Sun 09:35:09 PM 42.5000 -89.7197 83° East 444 511 23,300 -2,146 Descending Chicago Center
Sun 09:36:10 PM 42.5161 -89.5614 82° East 429 494 21,000 -2,439 Descending Chicago Center
Sun 09:37:12 PM 42.5292 -89.4078 83° East 414 476 18,300 -2,516 Descending Chicago Center
Sun 09:38:14 PM 42.5453 -89.2364 83° East 395 455 15,800 -2,081 Descending Chicago Center
Sun 09:39:16 PM 42.5536 -89.0961 85° East 380 437 14,000 -871 Descending Chicago Center
Sun 09:40:18 PM 42.5181 -88.9758 112° Southeast 342 394 14,000 -146 Level Chicago Center
Sun 09:41:19 PM 42.4853 -88.8656 112° Southeast 321 369 13,700 -976 Descending Chicago Center
Sun 09:42:21 PM 42.4525 -88.7564 112° Southeast 315 362 12,000 -1,694 Descending Chicago Center
Sun 09:43:23 PM 42.4200 -88.6503 113° Southeast 308 354 10,200 -1,463 Descending Chicago Center
Sun 09:44:24 PM 42.3836 -88.5294 112° Southeast 299 344 9,000 -732 Descending Chicago Center
Sun 09:45:26 PM 42.3475 -88.4286 116° Southeast 298 343 8,700 -871 Descending Chicago Center
Sun 09:46:28 PM 42.3075 -88.3386 121° Southeast 297 342 7,200 -829 Descending Chicago Center
Sun 09:47:29 PM 42.2683 -88.2447 119° Southeast 291 335 7,000 -195 Descending Chicago Center
Sun 09:48:31 PM 42.2086 -88.1811 142° Southeast 272 313 6,800 -387 Descending Chicago Center
Sun 09:49:33 PM 42.1561 -88.1219 140° Southeast 209 241 6,200 -581 Descending Chicago Center

Login

Don't have an account? Register now (free) for customized features, flight alerts, and more!